sensor_id;sensor_type;location;lat;lon;timestamp;temperature;humidity
4795;DHT22;2411;47.060;15.064;2023-02-22T00:01:34;4.10;1.00
4795;DHT22;2411;47.060;15.064;2023-02-22T00:04:04;4.10;1.00
4795;DHT22;2411;47.060;15.064;2023-02-22T00:06:32;4.20;1.00
4795;DHT22;2411;47.060;15.064;2023-02-22T00:08:59;4.20;1.00
4795;DHT22;2411;47.060;15.064;2023-02-22T00:11:28;4.50;1.00
4795;DHT22;2411;47.060;15.064;2023-02-22T00:13:57;4.60;1.00
4795;DHT22;2411;47.060;15.064;2023-02-22T00:16:25;4.60;1.00
4795;DHT22;2411;47.060;15.064;2023-02-22T00:18:52;4.80;1.00
4795;DHT22;2411;47.060;15.064;2023-02-22T00:21:20;4.80;1.00
4795;DHT22;2411;47.060;15.064;2023-02-22T00:23:48;4.90;1.00
4795;DHT22;2411;47.060;15.064;2023-02-22T00:26:19;5.00;1.00
4795;DHT22;2411;47.060;15.064;2023-02-22T00:28:51;4.90;1.00
4795;DHT22;2411;47.060;15.064;2023-02-22T00:31:19;4.70;1.00
4795;DHT22;2411;47.060;15.064;2023-02-22T00:33:47;4.60;1.00
4795;DHT22;2411;47.060;15.064;2023-02-22T00:36:14;4.40;1.00
4795;DHT22;2411;47.060;15.064;2023-02-22T00:38:41;4.20;1.00
4795;DHT22;2411;47.060;15.064;2023-02-22T00:41:09;3.80;1.00
4795;DHT22;2411;47.060;15.064;2023-02-22T00:43:37;3.20;1.00
4795;DHT22;2411;47.060;15.064;2023-02-22T00:46:04;3.00;1.00
4795;DHT22;2411;47.060;15.064;2023-02-22T00:48:33;3.10;1.00
4795;DHT22;2411;47.060;15.064;2023-02-22T00:51:00;3.40;1.00
4795;DHT22;2411;47.060;15.064;2023-02-22T00:53:27;3.70;1.00
4795;DHT22;2411;47.060;15.064;2023-02-22T00:55:55;3.80;1.00
4795;DHT22;2411;47.060;15.064;2023-02-22T00:58:22;3.90;1.00
4795;DHT22;2411;47.060;15.064;2023-02-22T01:00:50;3.90;1.00
4795;DHT22;2411;47.060;15.064;2023-02-22T01:03:18;3.90;1.00
4795;DHT22;2411;47.060;15.064;2023-02-22T01:05:46;4.00;1.00
4795;DHT22;2411;47.060;15.064;2023-02-22T01:08:15;4.00;1.00
4795;DHT22;2411;47.060;15.064;2023-02-22T01:10:43;4.10;1.00
4795;DHT22;2411;47.060;15.064;2023-02-22T01:13:11;4.20;1.00
4795;DHT22;2411;47.060;15.064;2023-02-22T01:15:41;4.20;1.00
4795;DHT22;2411;47.060;15.064;2023-02-22T01:18:11;4.30;1.00
4795;DHT22;2411;47.060;15.064;2023-02-22T01:20:39;4.30;1.00
4795;DHT22;2411;47.060;15.064;2023-02-22T01:23:06;4.20;1.00
4795;DHT22;2411;47.060;15.064;2023-02-22T01:25:34;4.00;1.00
4795;DHT22;2411;47.060;15.064;2023-02-22T01:28:04;3.70;1.00
4795;DHT22;2411;47.060;15.064;2023-02-22T01:30:34;3.20;1.00
4795;DHT22;2411;47.060;15.064;2023-02-22T01:33:04;2.80;1.00
4795;DHT22;2411;47.060;15.064;2023-02-22T01:35:35;2.70;1.00
4795;DHT22;2411;47.060;15.064;2023-02-22T01:38:02;2.60;1.00
4795;DHT22;2411;47.060;15.064;2023-02-22T01:40:41;2.70;1.00
4795;DHT22;2411;47.060;15.064;2023-02-22T01:43:21;2.90;1.00
4795;DHT22;2411;47.060;15.064;2023-02-22T01:46:26;3.00;1.00
4795;DHT22;2411;47.060;15.064;2023-02-22T01:48:57;3.10;1.00
4795;DHT22;2411;47.060;15.064;2023-02-22T01:51:50;3.10;1.00
4795;DHT22;2411;47.060;15.064;2023-02-22T01:54:20;3.10;1.00
4795;DHT22;2411;47.060;15.064;2023-02-22T01:57:13;3.00;1.00
4795;DHT22;2411;47.060;15.064;2023-02-22T01:59:49;2.80;1.00
4795;DHT22;2411;47.060;15.064;2023-02-22T02:02:17;2.50;1.00
4795;DHT22;2411;47.060;15.064;2023-02-22T02:04:48;2.60;1.00
4795;DHT22;2411;47.060;15.064;2023-02-22T02:07:17;2.50;1.00
4795;DHT22;2411;47.060;15.064;2023-02-22T02:09:58;2.50;1.00
4795;DHT22;2411;47.060;15.064;2023-02-22T02:12:32;2.50;1.00
4795;DHT22;2411;47.060;15.064;2023-02-22T02:17:47;2.60;1.00
4795;DHT22;2411;47.060;15.064;2023-02-22T02:20:49;2.60;1.00
4795;DHT22;2411;47.060;15.064;2023-02-22T02:42:43;2.90;1.00
4795;DHT22;2411;47.060;15.064;2023-02-22T02:45:20;2.90;1.00
4795;DHT22;2411;47.060;15.064;2023-02-22T02:47:54;2.80;1.00
4795;DHT22;2411;47.060;15.064;2023-02-22T02:50:53;2.60;1.00
4795;DHT22;2411;47.060;15.064;2023-02-22T02:53:26;2.60;1.00
4795;DHT22;2411;47.060;15.064;2023-02-22T02:55:58;2.50;1.00
4795;DHT22;2411;47.060;15.064;2023-02-22T02:58:26;2.40;1.00
4795;DHT22;2411;47.060;15.064;2023-02-22T03:00:59;2.30;1.00
4795;DHT22;2411;47.060;15.064;2023-02-22T03:06:42;2.30;1.00
4795;DHT22;2411;47.060;15.064;2023-02-22T03:09:29;2.30;1.00
4795;DHT22;2411;47.060;15.064;2023-02-22T03:14:44;2.30;1.00
4795;DHT22;2411;47.060;15.064;2023-02-22T03:17:27;2.40;1.00
4795;DHT22;2411;47.060;15.064;2023-02-22T03:20:33;2.40;1.00
4795;DHT22;2411;47.060;15.064;2023-02-22T03:23:17;2.60;1.00
4795;DHT22;2411;47.060;15.064;2023-02-22T03:25:57;2.60;1.00
4795;DHT22;2411;47.060;15.064;2023-02-22T03:28:28;2.60;1.00
4795;DHT22;2411;47.060;15.064;2023-02-22T03:31:07;2.40;1.00
4795;DHT22;2411;47.060;15.064;2023-02-22T03:33:42;2.20;1.00
4795;DHT22;2411;47.060;15.064;2023-02-22T03:36:21;2.00;1.00
4795;DHT22;2411;47.060;15.064;2023-02-22T03:38:52;2.00;1.00
4795;DHT22;2411;47.060;15.064;2023-02-22T03:41:24;1.90;1.00
4795;DHT22;2411;47.060;15.064;2023-02-22T03:44:00;1.80;1.00
4795;DHT22;2411;47.060;15.064;2023-02-22T03:46:30;1.80;1.00
4795;DHT22;2411;47.060;15.064;2023-02-22T03:49:03;1.90;1.00
4795;DHT22;2411;47.060;15.064;2023-02-22T03:51:31;1.90;1.00
4795;DHT22;2411;47.060;15.064;2023-02-22T03:53:58;1.90;1.00
4795;DHT22;2411;47.060;15.064;2023-02-22T03:56:43;1.90;1.00
4795;DHT22;2411;47.060;15.064;2023-02-22T03:59:13;2.00;1.00
4795;DHT22;2411;47.060;15.064;2023-02-22T04:01:40;2.00;1.00
4795;DHT22;2411;47.060;15.064;2023-02-22T04:04:08;2.00;1.00
4795;DHT22;2411;47.060;15.064;2023-02-22T04:06:35;2.10;1.00
4795;DHT22;2411;47.060;15.064;2023-02-22T04:09:02;2.10;1.00
4795;DHT22;2411;47.060;15.064;2023-02-22T04:11:29;2.10;1.00
4795;DHT22;2411;47.060;15.064;2023-02-22T04:13:57;2.10;1.00
4795;DHT22;2411;47.060;15.064;2023-02-22T04:16:24;2.10;1.00
4795;DHT22;2411;47.060;15.064;2023-02-22T04:18:51;2.10;1.00
4795;DHT22;2411;47.060;15.064;2023-02-22T04:21:19;2.10;1.00
4795;DHT22;2411;47.060;15.064;2023-02-22T04:23:46;2.00;1.00
4795;DHT22;2411;47.060;15.064;2023-02-22T04:26:13;1.90;1.00
4795;DHT22;2411;47.060;15.064;2023-02-22T04:28:40;2.00;1.00
4795;DHT22;2411;47.060;15.064;2023-02-22T04:31:08;2.00;1.00
4795;DHT22;2411;47.060;15.064;2023-02-22T04:33:35;2.10;1.00
4795;DHT22;2411;47.060;15.064;2023-02-22T04:36:03;2.20;1.00
4795;DHT22;2411;47.060;15.064;2023-02-22T04:38:30;2.10;1.00
4795;DHT22;2411;47.060;15.064;2023-02-22T04:40:57;2.00;1.00
4795;DHT22;2411;47.060;15.064;2023-02-22T04:43:25;2.00;1.00
4795;DHT22;2411;47.060;15.064;2023-02-22T04:45:52;2.00;1.00
4795;DHT22;2411;47.060;15.064;2023-02-22T04:48:20;2.10;1.00
4795;DHT22;2411;47.060;15.064;2023-02-22T04:50:47;2.00;1.00
4795;DHT22;2411;47.060;15.064;2023-02-22T04:53:15;1.90;1.00
4795;DHT22;2411;47.060;15.064;2023-02-22T04:55:42;1.90;1.00
4795;DHT22;2411;47.060;15.064;2023-02-22T04:58:09;1.80;1.00
4795;DHT22;2411;47.060;15.064;2023-02-22T05:00:37;1.70;1.00
4795;DHT22;2411;47.060;15.064;2023-02-22T05:03:04;1.60;1.00
4795;DHT22;2411;47.060;15.064;2023-02-22T05:05:31;1.60;1.00
4795;DHT22;2411;47.060;15.064;2023-02-22T05:07:58;1.60;1.00
4795;DHT22;2411;47.060;15.064;2023-02-22T05:10:26;1.70;1.00
4795;DHT22;2411;47.060;15.064;2023-02-22T05:12:53;1.80;1.00
4795;DHT22;2411;47.060;15.064;2023-02-22T05:15:21;1.80;1.00
4795;DHT22;2411;47.060;15.064;2023-02-22T05:17:52;1.80;1.00
4795;DHT22;2411;47.060;15.064;2023-02-22T05:20:28;1.80;1.00
4795;DHT22;2411;47.060;15.064;2023-02-22T05:22:58;1.80;1.00
4795;DHT22;2411;47.060;15.064;2023-02-22T05:25:26;1.80;1.00
4795;DHT22;2411;47.060;15.064;2023-02-22T05:27:58;1.70;1.00
4795;DHT22;2411;47.060;15.064;2023-02-22T05:30:29;1.60;1.00
4795;DHT22;2411;47.060;15.064;2023-02-22T05:32:56;1.70;1.00
4795;DHT22;2411;47.060;15.064;2023-02-22T05:35:25;2.60;1.00
4795;DHT22;2411;47.060;15.064;2023-02-22T05:37:53;2.20;1.00
4795;DHT22;2411;47.060;15.064;2023-02-22T05:40:23;2.00;1.00
4795;DHT22;2411;47.060;15.064;2023-02-22T05:42:51;1.80;1.00
4795;DHT22;2411;47.060;15.064;2023-02-22T05:45:21;1.70;1.00
4795;DHT22;2411;47.060;15.064;2023-02-22T05:47:49;1.60;1.00
4795;DHT22;2411;47.060;15.064;2023-02-22T05:50:19;1.50;1.00
4795;DHT22;2411;47.060;15.064;2023-02-22T05:52:47;1.40;1.00
4795;DHT22;2411;47.060;15.064;2023-02-22T05:55:17;1.40;1.00
4795;DHT22;2411;47.060;15.064;2023-02-22T05:57:44;1.30;1.00
4795;DHT22;2411;47.060;15.064;2023-02-22T06:02:44;1.20;1.00
4795;DHT22;2411;47.060;15.064;2023-02-22T06:05:11;1.30;1.00
4795;DHT22;2411;47.060;15.064;2023-02-22T06:07:39;1.40;1.00
4795;DHT22;2411;47.060;15.064;2023-02-22T06:10:07;1.40;1.00
4795;DHT22;2411;47.060;15.064;2023-02-22T06:12:34;1.40;1.00
4795;DHT22;2411;47.060;15.064;2023-02-22T06:15:01;1.60;1.00
4795;DHT22;2411;47.060;15.064;2023-02-22T06:17:29;1.60;1.00
4795;DHT22;2411;47.060;15.064;2023-02-22T06:19:56;1.70;1.00
4795;DHT22;2411;47.060;15.064;2023-02-22T06:22:23;1.70;1.00
4795;DHT22;2411;47.060;15.064;2023-02-22T06:24:51;1.70;1.00
4795;DHT22;2411;47.060;15.064;2023-02-22T06:27:20;1.80;1.00
4795;DHT22;2411;47.060;15.064;2023-02-22T06:29:48;1.80;1.00
4795;DHT22;2411;47.060;15.064;2023-02-22T06:32:15;1.80;1.00
4795;DHT22;2411;47.060;15.064;2023-02-22T06:34:42;1.90;1.00
4795;DHT22;2411;47.060;15.064;2023-02-22T06:37:10;1.90;1.00
4795;DHT22;2411;47.060;15.064;2023-02-22T06:39:37;2.00;1.00
4795;DHT22;2411;47.060;15.064;2023-02-22T06:42:05;2.00;1.00
4795;DHT22;2411;47.060;15.064;2023-02-22T06:44:32;2.00;1.00
4795;DHT22;2411;47.060;15.064;2023-02-22T06:47:00;2.10;1.00
4795;DHT22;2411;47.060;15.064;2023-02-22T06:49:27;2.20;1.00
4795;DHT22;2411;47.060;15.064;2023-02-22T06:51:55;2.30;1.00
4795;DHT22;2411;47.060;15.064;2023-02-22T06:54:22;2.50;1.00
4795;DHT22;2411;47.060;15.064;2023-02-22T06:56:49;2.60;1.00
4795;DHT22;2411;47.060;15.064;2023-02-22T06:59:17;2.70;1.00
4795;DHT22;2411;47.060;15.064;2023-02-22T07:01:44;2.80;1.00
4795;DHT22;2411;47.060;15.064;2023-02-22T07:04:11;2.90;1.00
4795;DHT22;2411;47.060;15.064;2023-02-22T07:06:44;3.00;1.00
4795;DHT22;2411;47.060;15.064;2023-02-22T07:09:14;3.20;1.00
4795;DHT22;2411;47.060;15.064;2023-02-22T07:11:41;3.30;1.00
4795;DHT22;2411;47.060;15.064;2023-02-22T07:14:09;3.30;1.00
4795;DHT22;2411;47.060;15.064;2023-02-22T07:16:36;3.40;1.00
4795;DHT22;2411;47.060;15.064;2023-02-22T07:19:03;3.60;1.00
4795;DHT22;2411;47.060;15.064;2023-02-22T07:21:31;3.60;1.00
4795;DHT22;2411;47.060;15.064;2023-02-22T07:23:58;3.70;1.00
4795;DHT22;2411;47.060;15.064;2023-02-22T07:26:26;3.80;1.00
4795;DHT22;2411;47.060;15.064;2023-02-22T07:28:53;3.90;1.00
4795;DHT22;2411;47.060;15.064;2023-02-22T07:31:21;4.00;1.00
4795;DHT22;2411;47.060;15.064;2023-02-22T07:33:48;4.10;1.00
4795;DHT22;2411;47.060;15.064;2023-02-22T07:36:15;4.20;1.00
4795;DHT22;2411;47.060;15.064;2023-02-22T07:38:44;4.30;1.00
4795;DHT22;2411;47.060;15.064;2023-02-22T07:41:12;4.30;1.00
4795;DHT22;2411;47.060;15.064;2023-02-22T07:43:39;4.40;1.00
4795;DHT22;2411;47.060;15.064;2023-02-22T07:46:06;4.40;1.00
4795;DHT22;2411;47.060;15.064;2023-02-22T07:48:34;4.50;1.00
4795;DHT22;2411;47.060;15.064;2023-02-22T07:51:01;4.60;1.00
4795;DHT22;2411;47.060;15.064;2023-02-22T07:53:30;4.70;1.00
4795;DHT22;2411;47.060;15.064;2023-02-22T07:56:01;4.70;1.00
4795;DHT22;2411;47.060;15.064;2023-02-22T07:58:30;4.80;1.00
4795;DHT22;2411;47.060;15.064;2023-02-22T08:00:59;5.00;1.00
4795;DHT22;2411;47.060;15.064;2023-02-22T08:03:32;5.10;1.00
4795;DHT22;2411;47.060;15.064;2023-02-22T08:06:05;5.20;1.00
4795;DHT22;2411;47.060;15.064;2023-02-22T08:08:33;5.30;1.00
4795;DHT22;2411;47.060;15.064;2023-02-22T08:11:00;5.50;1.00
4795;DHT22;2411;47.060;15.064;2023-02-22T08:13:28;5.60;1.00
4795;DHT22;2411;47.060;15.064;2023-02-22T08:15:55;5.80;1.00
4795;DHT22;2411;47.060;15.064;2023-02-22T08:18:24;5.90;1.00
4795;DHT22;2411;47.060;15.064;2023-02-22T08:20:52;6.00;1.00
4795;DHT22;2411;47.060;15.064;2023-02-22T08:23:21;6.10;1.00
4795;DHT22;2411;47.060;15.064;2023-02-22T08:25:48;6.20;1.00
4795;DHT22;2411;47.060;15.064;2023-02-22T08:28:18;6.30;1.00
4795;DHT22;2411;47.060;15.064;2023-02-22T08:30:46;6.40;1.00
4795;DHT22;2411;47.060;15.064;2023-02-22T08:33:15;6.50;1.00
4795;DHT22;2411;47.060;15.064;2023-02-22T08:35:47;6.60;1.00
4795;DHT22;2411;47.060;15.064;2023-02-22T08:38:25;6.80;1.00
4795;DHT22;2411;47.060;15.064;2023-02-22T08:40:53;7.00;1.00
4795;DHT22;2411;47.060;15.064;2023-02-22T08:43:21;7.10;1.00
4795;DHT22;2411;47.060;15.064;2023-02-22T08:45:49;7.20;1.00
4795;DHT22;2411;47.060;15.064;2023-02-22T08:48:18;7.30;1.00
4795;DHT22;2411;47.060;15.064;2023-02-22T08:50:45;7.50;1.00
4795;DHT22;2411;47.060;15.064;2023-02-22T08:53:13;7.60;1.00
4795;DHT22;2411;47.060;15.064;2023-02-22T08:55:42;7.70;1.00
4795;DHT22;2411;47.060;15.064;2023-02-22T08:58:09;7.80;1.00
4795;DHT22;2411;47.060;15.064;2023-02-22T09:00:39;7.90;1.00
4795;DHT22;2411;47.060;15.064;2023-02-22T09:03:09;8.10;1.00
4795;DHT22;2411;47.060;15.064;2023-02-22T09:05:56;8.20;1.00
4795;DHT22;2411;47.060;15.064;2023-02-22T09:08:44;8.40;1.00
4795;DHT22;2411;47.060;15.064;2023-02-22T09:11:29;8.50;1.00
4795;DHT22;2411;47.060;15.064;2023-02-22T09:13:57;8.70;1.00
4795;DHT22;2411;47.060;15.064;2023-02-22T09:16:24;8.80;1.00
4795;DHT22;2411;47.060;15.064;2023-02-22T09:18:51;8.90;1.00
4795;DHT22;2411;47.060;15.064;2023-02-22T09:21:19;9.00;1.00
4795;DHT22;2411;47.060;15.064;2023-02-22T09:23:46;9.10;1.00
4795;DHT22;2411;47.060;15.064;2023-02-22T09:26:14;9.10;1.00
4795;DHT22;2411;47.060;15.064;2023-02-22T09:28:44;9.20;1.00
4795;DHT22;2411;47.060;15.064;2023-02-22T09:31:11;9.30;1.00
4795;DHT22;2411;47.060;15.064;2023-02-22T09:33:40;9.40;1.00
4795;DHT22;2411;47.060;15.064;2023-02-22T09:36:07;9.50;1.00
4795;DHT22;2411;47.060;15.064;2023-02-22T09:38:35;9.60;1.00
4795;DHT22;2411;47.060;15.064;2023-02-22T09:41:30;9.70;1.00
4795;DHT22;2411;47.060;15.064;2023-02-22T09:46:43;9.90;1.00
4795;DHT22;2411;47.060;15.064;2023-02-22T09:54:49;10.10;1.00
4795;DHT22;2411;47.060;15.064;2023-02-22T09:57:32;10.30;1.00
4795;DHT22;2411;47.060;15.064;2023-02-22T10:00:12;10.40;1.00
4795;DHT22;2411;47.060;15.064;2023-02-22T10:05:48;10.60;1.00
4795;DHT22;2411;47.060;15.064;2023-02-22T10:08:18;10.80;1.00
4795;DHT22;2411;47.060;15.064;2023-02-22T10:10:50;10.80;1.00
4795;DHT22;2411;47.060;15.064;2023-02-22T10:13:43;10.70;1.00
4795;DHT22;2411;47.060;15.064;2023-02-22T10:19:31;10.80;1.00
4795;DHT22;2411;47.060;15.064;2023-02-22T10:22:26;11.00;1.00
4795;DHT22;2411;47.060;15.064;2023-02-22T10:28:09;11.10;1.00
4795;DHT22;2411;47.060;15.064;2023-02-22T10:30:36;11.10;1.00
4795;DHT22;2411;47.060;15.064;2023-02-22T10:35:35;11.10;1.00
4795;DHT22;2411;47.060;15.064;2023-02-22T10:40:38;11.40;1.00
4795;DHT22;2411;47.060;15.064;2023-02-22T10:43:09;11.30;1.00
4795;DHT22;2411;47.060;15.064;2023-02-22T10:45:40;11.30;1.00
4795;DHT22;2411;47.060;15.064;2023-02-22T10:48:11;11.50;1.00
4795;DHT22;2411;47.060;15.064;2023-02-22T10:50:42;11.50;1.00
4795;DHT22;2411;47.060;15.064;2023-02-22T10:53:10;11.60;1.00
4795;DHT22;2411;47.060;15.064;2023-02-22T10:58:48;11.60;1.00
4795;DHT22;2411;47.060;15.064;2023-02-22T11:04:16;11.70;1.00
4795;DHT22;2411;47.060;15.064;2023-02-22T11:07:08;11.80;1.00
4795;DHT22;2411;47.060;15.064;2023-02-22T11:12:28;12.00;1.00
4795;DHT22;2411;47.060;15.064;2023-02-22T11:14:56;12.20;1.00
4795;DHT22;2411;47.060;15.064;2023-02-22T11:17:31;12.20;1.00
4795;DHT22;2411;47.060;15.064;2023-02-22T11:20:00;12.10;1.00
4795;DHT22;2411;47.060;15.064;2023-02-22T11:22:34;12.20;1.00
4795;DHT22;2411;47.060;15.064;2023-02-22T11:25:04;12.30;1.00
4795;DHT22;2411;47.060;15.064;2023-02-22T11:27:38;12.30;1.00
4795;DHT22;2411;47.060;15.064;2023-02-22T11:30:30;12.40;1.00
4795;DHT22;2411;47.060;15.064;2023-02-22T11:33:10;12.50;1.00
4795;DHT22;2411;47.060;15.064;2023-02-22T11:35:49;12.60;1.00
4795;DHT22;2411;47.060;15.064;2023-02-22T11:38:32;12.70;1.00
4795;DHT22;2411;47.060;15.064;2023-02-22T11:41:25;12.80;1.00
4795;DHT22;2411;47.060;15.064;2023-02-22T11:43:52;12.90;1.00
4795;DHT22;2411;47.060;15.064;2023-02-22T11:46:27;13.10;1.00
4795;DHT22;2411;47.060;15.064;2023-02-22T11:49:10;12.90;1.00
4795;DHT22;2411;47.060;15.064;2023-02-22T11:54:53;13.00;1.00
4795;DHT22;2411;47.060;15.064;2023-02-22T12:00:53;13.20;1.00
4795;DHT22;2411;47.060;15.064;2023-02-22T12:19:49;13.30;1.00
4795;DHT22;2411;47.060;15.064;2023-02-22T12:22:51;13.20;1.00
4795;DHT22;2411;47.060;15.064;2023-02-22T12:25:22;13.30;1.00
4795;DHT22;2411;47.060;15.064;2023-02-22T12:31:19;13.40;1.00
4795;DHT22;2411;47.060;15.064;2023-02-22T12:36:47;13.50;1.00
4795;DHT22;2411;47.060;15.064;2023-02-22T12:45:20;13.70;1.00
4795;DHT22;2411;47.060;15.064;2023-02-22T12:50:28;13.70;1.00
4795;DHT22;2411;47.060;15.064;2023-02-22T12:53:20;13.50;1.00
4795;DHT22;2411;47.060;15.064;2023-02-22T12:55:56;13.60;1.00
4795;DHT22;2411;47.060;15.064;2023-02-22T13:01:31;13.80;1.00
4795;DHT22;2411;47.060;15.064;2023-02-22T13:04:00;13.80;1.00
4795;DHT22;2411;47.060;15.064;2023-02-22T13:12:18;13.60;1.00
4795;DHT22;2411;47.060;15.064;2023-02-22T13:17:52;13.90;1.00
4795;DHT22;2411;47.060;15.064;2023-02-22T13:20:59;13.90;1.00
4795;DHT22;2411;47.060;15.064;2023-02-22T13:23:31;13.80;1.00
4795;DHT22;2411;47.060;15.064;2023-02-22T13:26:17;13.80;1.00
4795;DHT22;2411;47.060;15.064;2023-02-22T13:29:09;13.80;1.00
4795;DHT22;2411;47.060;15.064;2023-02-22T13:31:56;13.70;1.00
4795;DHT22;2411;47.060;15.064;2023-02-22T13:43:36;14.10;1.00
4795;DHT22;2411;47.060;15.064;2023-02-22T13:49:13;14.00;1.00
4795;DHT22;2411;47.060;15.064;2023-02-22T13:52:28;14.00;1.00
4795;DHT22;2411;47.060;15.064;2023-02-22T13:54:59;14.00;1.00
4795;DHT22;2411;47.060;15.064;2023-02-22T13:57:47;14.00;1.00
4795;DHT22;2411;47.060;15.064;2023-02-22T14:00:20;13.90;1.00
4795;DHT22;2411;47.060;15.064;2023-02-22T14:03:27;14.00;1.00
4795;DHT22;2411;47.060;15.064;2023-02-22T14:05:56;14.10;1.00
4795;DHT22;2411;47.060;15.064;2023-02-22T14:13:23;14.00;1.00
4795;DHT22;2411;47.060;15.064;2023-02-22T14:18:40;14.20;1.00
4795;DHT22;2411;47.060;15.064;2023-02-22T14:21:20;14.20;1.00
4795;DHT22;2411;47.060;15.064;2023-02-22T14:23:50;14.10;1.00
4795;DHT22;2411;47.060;15.064;2023-02-22T14:26:31;14.20;1.00
4795;DHT22;2411;47.060;15.064;2023-02-22T14:34:20;14.20;1.00
4795;DHT22;2411;47.060;15.064;2023-02-22T14:36:58;14.20;1.00
4795;DHT22;2411;47.060;15.064;2023-02-22T14:47:26;13.70;1.00
4795;DHT22;2411;47.060;15.064;2023-02-22T14:50:06;13.70;1.00
4795;DHT22;2411;47.060;15.064;2023-02-22T14:52:37;13.70;1.00
4795;DHT22;2411;47.060;15.064;2023-02-22T14:55:24;13.60;1.00
4795;DHT22;2411;47.060;15.064;2023-02-22T14:57:57;13.60;1.00
4795;DHT22;2411;47.060;15.064;2023-02-22T15:00:37;13.50;1.00
4795;DHT22;2411;47.060;15.064;2023-02-22T15:05:55;13.50;1.00
4795;DHT22;2411;47.060;15.064;2023-02-22T15:08:26;13.40;1.00
4795;DHT22;2411;47.060;15.064;2023-02-22T15:10:54;13.40;1.00
4795;DHT22;2411;47.060;15.064;2023-02-22T15:13:27;13.50;1.00
4795;DHT22;2411;47.060;15.064;2023-02-22T15:16:03;13.60;1.00
4795;DHT22;2411;47.060;15.064;2023-02-22T15:18:44;13.70;1.00
4795;DHT22;2411;47.060;15.064;2023-02-22T15:21:19;13.80;1.00
4795;DHT22;2411;47.060;15.064;2023-02-22T15:23:52;13.80;1.00
4795;DHT22;2411;47.060;15.064;2023-02-22T15:26:35;13.70;1.00
4795;DHT22;2411;47.060;15.064;2023-02-22T15:29:22;13.60;1.00
4795;DHT22;2411;47.060;15.064;2023-02-22T15:31:53;13.40;1.00
4795;DHT22;2411;47.060;15.064;2023-02-22T15:34:32;13.30;1.00
4795;DHT22;2411;47.060;15.064;2023-02-22T15:37:20;13.10;1.00
4795;DHT22;2411;47.060;15.064;2023-02-22T15:39:52;13.00;1.00
4795;DHT22;2411;47.060;15.064;2023-02-22T15:42:26;12.90;1.00
4795;DHT22;2411;47.060;15.064;2023-02-22T15:44:56;12.80;1.00
4795;DHT22;2411;47.060;15.064;2023-02-22T15:47:27;12.60;1.00
4795;DHT22;2411;47.060;15.064;2023-02-22T15:52:53;12.40;1.00
4795;DHT22;2411;47.060;15.064;2023-02-22T15:57:56;12.20;1.00
4795;DHT22;2411;47.060;15.064;2023-02-22T16:00:35;12.10;1.00
4795;DHT22;2411;47.060;15.064;2023-02-22T16:03:06;12.00;1.00
4795;DHT22;2411;47.060;15.064;2023-02-22T16:05:47;11.90;1.00
4795;DHT22;2411;47.060;15.064;2023-02-22T16:08:21;11.70;1.00
4795;DHT22;2411;47.060;15.064;2023-02-22T16:11:10;11.60;1.00
4795;DHT22;2411;47.060;15.064;2023-02-22T16:17:18;11.30;1.00
4795;DHT22;2411;47.060;15.064;2023-02-22T16:22:40;11.00;1.00
4795;DHT22;2411;47.060;15.064;2023-02-22T16:28:27;10.90;1.00
4795;DHT22;2411;47.060;15.064;2023-02-22T16:30:58;10.80;1.00
4795;DHT22;2411;47.060;15.064;2023-02-22T16:33:26;10.70;1.00
4795;DHT22;2411;47.060;15.064;2023-02-22T16:36:04;10.60;1.00
4795;DHT22;2411;47.060;15.064;2023-02-22T16:38:32;10.50;1.00
4795;DHT22;2411;47.060;15.064;2023-02-22T16:41:00;10.40;1.00
4795;DHT22;2411;47.060;15.064;2023-02-22T16:43:28;10.30;1.00
4795;DHT22;2411;47.060;15.064;2023-02-22T16:45:58;10.30;1.00
4795;DHT22;2411;47.060;15.064;2023-02-22T16:48:29;10.20;1.00
4795;DHT22;2411;47.060;15.064;2023-02-22T16:51:05;10.10;1.00
4795;DHT22;2411;47.060;15.064;2023-02-22T16:53:33;10.00;1.00
4795;DHT22;2411;47.060;15.064;2023-02-22T16:56:03;9.80;1.00
4795;DHT22;2411;47.060;15.064;2023-02-22T16:58:33;9.70;1.00
4795;DHT22;2411;47.060;15.064;2023-02-22T17:01:02;9.70;1.00
4795;DHT22;2411;47.060;15.064;2023-02-22T17:03:30;9.60;1.00
4795;DHT22;2411;47.060;15.064;2023-02-22T17:05:57;9.60;1.00
4795;DHT22;2411;47.060;15.064;2023-02-22T17:08:24;9.50;1.00
4795;DHT22;2411;47.060;15.064;2023-02-22T17:10:53;9.50;1.00
4795;DHT22;2411;47.060;15.064;2023-02-22T17:13:24;9.40;1.00
4795;DHT22;2411;47.060;15.064;2023-02-22T17:15:53;9.30;1.00
4795;DHT22;2411;47.060;15.064;2023-02-22T17:18:23;9.20;1.00
4795;DHT22;2411;47.060;15.064;2023-02-22T17:20:51;9.00;1.00
4795;DHT22;2411;47.060;15.064;2023-02-22T17:23:19;8.90;1.00
4795;DHT22;2411;47.060;15.064;2023-02-22T17:26:05;8.80;1.00
4795;DHT22;2411;47.060;15.064;2023-02-22T17:28:50;8.70;1.00
4795;DHT22;2411;47.060;15.064;2023-02-22T17:31:36;8.60;1.00
4795;DHT22;2411;47.060;15.064;2023-02-22T17:34:05;8.60;1.00
4795;DHT22;2411;47.060;15.064;2023-02-22T17:36:33;8.50;1.00
4795;DHT22;2411;47.060;15.064;2023-02-22T17:39:03;8.50;1.00
4795;DHT22;2411;47.060;15.064;2023-02-22T17:41:31;8.40;1.00
4795;DHT22;2411;47.060;15.064;2023-02-22T17:43:58;8.30;1.00
4795;DHT22;2411;47.060;15.064;2023-02-22T17:46:25;8.20;1.00
4795;DHT22;2411;47.060;15.064;2023-02-22T17:48:53;8.10;1.00
4795;DHT22;2411;47.060;15.064;2023-02-22T17:51:22;8.00;1.00
4795;DHT22;2411;47.060;15.064;2023-02-22T17:53:51;7.90;1.00
4795;DHT22;2411;47.060;15.064;2023-02-22T17:56:18;7.90;1.00
4795;DHT22;2411;47.060;15.064;2023-02-22T17:58:47;7.80;1.00
4795;DHT22;2411;47.060;15.064;2023-02-22T18:01:24;7.70;1.00
4795;DHT22;2411;47.060;15.064;2023-02-22T18:03:55;7.70;1.00
4795;DHT22;2411;47.060;15.064;2023-02-22T18:06:24;7.50;1.00
4795;DHT22;2411;47.060;15.064;2023-02-22T18:08:57;7.50;1.00
4795;DHT22;2411;47.060;15.064;2023-02-22T18:11:27;7.40;1.00
4795;DHT22;2411;47.060;15.064;2023-02-22T18:13:56;7.40;1.00
4795;DHT22;2411;47.060;15.064;2023-02-22T18:16:24;7.30;1.00
4795;DHT22;2411;47.060;15.064;2023-02-22T18:18:53;7.30;1.00
4795;DHT22;2411;47.060;15.064;2023-02-22T18:21:21;7.30;1.00
4795;DHT22;2411;47.060;15.064;2023-02-22T18:23:49;7.20;1.00
4795;DHT22;2411;47.060;15.064;2023-02-22T18:26:18;7.10;1.00
4795;DHT22;2411;47.060;15.064;2023-02-22T18:28:46;7.10;1.00
4795;DHT22;2411;47.060;15.064;2023-02-22T18:31:18;7.00;1.00
4795;DHT22;2411;47.060;15.064;2023-02-22T18:33:49;7.00;1.00
4795;DHT22;2411;47.060;15.064;2023-02-22T18:36:18;6.80;1.00
4795;DHT22;2411;47.060;15.064;2023-02-22T18:38:51;6.60;1.00
4795;DHT22;2411;47.060;15.064;2023-02-22T18:41:20;6.60;1.00
4795;DHT22;2411;47.060;15.064;2023-02-22T18:43:52;6.50;1.00
4795;DHT22;2411;47.060;15.064;2023-02-22T18:46:22;6.60;1.00
4795;DHT22;2411;47.060;15.064;2023-02-22T18:48:53;6.50;1.00
4795;DHT22;2411;47.060;15.064;2023-02-22T18:51:21;6.50;1.00
4795;DHT22;2411;47.060;15.064;2023-02-22T18:53:48;6.50;1.00
4795;DHT22;2411;47.060;15.064;2023-02-22T18:56:35;6.30;1.00
4795;DHT22;2411;47.060;15.064;2023-02-22T18:59:20;6.30;1.00
4795;DHT22;2411;47.060;15.064;2023-02-22T19:01:47;6.30;1.00
4795;DHT22;2411;47.060;15.064;2023-02-22T19:04:15;6.20;1.00
4795;DHT22;2411;47.060;15.064;2023-02-22T19:06:44;6.20;1.00
4795;DHT22;2411;47.060;15.064;2023-02-22T19:09:15;6.30;1.00
4795;DHT22;2411;47.060;15.064;2023-02-22T19:11:42;6.20;1.00
4795;DHT22;2411;47.060;15.064;2023-02-22T19:14:14;6.20;1.00
4795;DHT22;2411;47.060;15.064;2023-02-22T19:16:43;6.10;1.00
4795;DHT22;2411;47.060;15.064;2023-02-22T19:19:14;5.90;1.00
4795;DHT22;2411;47.060;15.064;2023-02-22T19:21:48;5.90;1.00
4795;DHT22;2411;47.060;15.064;2023-02-22T19:24:16;5.90;1.00
4795;DHT22;2411;47.060;15.064;2023-02-22T19:26:46;5.90;1.00